Lake Charles, LA (70605)

9:26 PM CST on February 12, 2016 (GMT -0600)
The Meadow | | Change Station
CLOSE
Current Station
Personal Weather Station
Location: Lake Charles, LA
Elevation: 26 ft
Nearby Weather Stations

Elev 26 ft 30.15 °N, 93.23 °W | Updated 8 minutes ago

Clear
Clear
58.6 °F
Feels Like 58.6 °F
N
0.0
Wind Variable Wind from WSW
Gusts 0.0 mph

Today
High -- | Low -- °F
--% Chance of Precip.
Yesterday
High -- | Low -- °F
Precip. -- in
Pressure 30.30 in
Visibility 10.0 miles
Clouds Clear
Dew Point 55 °F
Humidity 87%
Rainfall 0.00 in
Snow Depth Not available.
6:55 AM 5:58 PM
Waxing Crescent, 26% visible
METAR KLCH 130253Z 00000KT 10SM CLR 15/14 A3028 RMK AO2 SLP260 T01500139 53024
Pressure 30.30 in
Visibility 10.0 miles
Clouds Clear
Dew Point 55 °F
Humidity 87%
Rainfall 0.00 in
Snow Depth Not available.
6:55 AM 5:58 PM
Waxing Crescent, 26% visible
METAR KLCH 130253Z 00000KT 10SM CLR 15/14 A3028 RMK AO2 SLP260 T01500139 53024

10-Day Weather Forecast

Almanac

Astronomy

Feb. 12, 2016 Rise Set
Actual Time
Civil Twilight
Nautical Twilight
Astronomical Twilight
Moon
Length of Visible Light
Length of Day
Tomorrow will be .
, % of the Moon is Illuminated

Today's Extremes

State Highs State Lows

Community

WunderPhotos

Upload Photos

1,892,491 photos uploaded!

WunderBlog® & News

Nearby

Air Quality

  Air Quality AQ Index Pollutant
Not available.

Snow Depth

Station Depth Elevation

Earthquake Activity

City Distance Mag. Time & Date
Minimum magnitude displayed is 2.5.

Coastal Water Temperatures

Place Temperature

Stations

Nearby Weather Stations

Station Location Temp. Windchill Dew Point Humidity Wind Precip. Elev Updated Type
                   

Watches & Warnings

There are currently no watches in effect.